sensor_id;sensor_type;location;lat;lon;timestamp;P1;durP1;ratioP1;P2;durP2;ratioP2
20772;SDS011;10546;50.674;4.616;2024-03-02T08:00:54;5.00;;;1.20;;
20772;SDS011;10546;50.674;4.616;2024-03-02T08:03:22;2.83;;;1.13;;
20772;SDS011;10546;50.674;4.616;2024-03-02T08:05:50;5.95;;;1.40;;
20772;SDS011;10546;50.674;4.616;2024-03-02T08:08:16;6.78;;;1.27;;
20772;SDS011;10546;50.674;4.616;2024-03-02T08:10:42;2.67;;;1.10;;
20772;SDS011;10546;50.674;4.616;2024-03-02T08:13:09;6.90;;;1.70;;
20772;SDS011;10546;50.674;4.616;2024-03-02T08:15:35;5.72;;;1.20;;
20772;SDS011;10546;50.674;4.616;2024-03-02T08:18:12;3.72;;;1.10;;
20772;SDS011;10546;50.674;4.616;2024-03-02T08:20:48;5.40;;;1.48;;
20772;SDS011;10546;50.674;4.616;2024-03-02T08:23:14;6.30;;;1.23;;
20772;SDS011;10546;50.674;4.616;2024-03-02T08:25:40;4.32;;;1.20;;
20772;SDS011;10546;50.674;4.616;2024-03-02T08:28:05;5.30;;;1.42;;
20772;SDS011;10546;50.674;4.616;2024-03-02T08:30:32;3.70;;;1.42;;
20772;SDS011;10546;50.674;4.616;2024-03-02T08:32:57;4.50;;;1.52;;
20772;SDS011;10546;50.674;4.616;2024-03-02T08:35:23;4.50;;;1.52;;
20772;SDS011;10546;50.674;4.616;2024-03-02T08:37:48;8.88;;;3.00;;
20772;SDS011;10546;50.674;4.616;2024-03-02T08:40:14;5.30;;;1.48;;
20772;SDS011;10546;50.674;4.616;2024-03-02T08:42:41;8.37;;;1.50;;
20772;SDS011;10546;50.674;4.616;2024-03-02T08:45:09;5.30;;;1.73;;
20772;SDS011;10546;50.674;4.616;2024-03-02T08:47:34;7.57;;;1.23;;
20772;SDS011;10546;50.674;4.616;2024-03-02T08:50:01;3.60;;;1.10;;
20772;SDS011;10546;50.674;4.616;2024-03-02T08:52:29;5.60;;;1.07;;
20772;SDS011;10546;50.674;4.616;2024-03-02T08:54:54;6.60;;;1.37;;
20772;SDS011;10546;50.674;4.616;2024-03-02T08:57:20;5.47;;;1.50;;
20772;SDS011;10546;50.674;4.616;2024-03-02T08:59:45;4.37;;;1.30;;
20772;SDS011;10546;50.674;4.616;2024-03-02T09:02:11;6.60;;;1.60;;
20772;SDS011;10546;50.674;4.616;2024-03-02T09:04:40;3.55;;;1.15;;
20772;SDS011;10546;50.674;4.616;2024-03-02T09:07:05;3.65;;;1.05;;
20772;SDS011;10546;50.674;4.616;2024-03-02T09:09:32;5.15;;;1.50;;
20772;SDS011;10546;50.674;4.616;2024-03-02T09:11:58;3.42;;;0.95;;
20772;SDS011;10546;50.674;4.616;2024-03-02T09:14:24;7.20;;;1.20;;
20772;SDS011;10546;50.674;4.616;2024-03-02T09:16:53;9.93;;;1.30;;
20772;SDS011;10546;50.674;4.616;2024-03-02T09:19:21;3.33;;;1.17;;
20772;SDS011;10546;50.674;4.616;2024-03-02T09:21:52;6.10;;;1.40;;
20772;SDS011;10546;50.674;4.616;2024-03-02T09:24:19;6.50;;;1.23;;
20772;SDS011;10546;50.674;4.616;2024-03-02T09:26:45;5.50;;;1.20;;
20772;SDS011;10546;50.674;4.616;2024-03-02T09:29:10;7.32;;;1.45;;
20772;SDS011;10546;50.674;4.616;2024-03-02T09:31:41;3.47;;;0.80;;
20772;SDS011;10546;50.674;4.616;2024-03-02T09:34:16;5.35;;;1.13;;
20772;SDS011;10546;50.674;4.616;2024-03-02T09:36:42;3.30;;;1.10;;
20772;SDS011;10546;50.674;4.616;2024-03-02T09:39:09;3.80;;;1.08;;
20772;SDS011;10546;50.674;4.616;2024-03-02T09:41:37;4.75;;;1.20;;
20772;SDS011;10546;50.674;4.616;2024-03-02T09:44:05;5.65;;;1.30;;
20772;SDS011;10546;50.674;4.616;2024-03-02T09:46:31;5.30;;;1.38;;
20772;SDS011;10546;50.674;4.616;2024-03-02T09:48:57;6.43;;;1.13;;
20772;SDS011;10546;50.674;4.616;2024-03-02T09:51:23;5.00;;;0.88;;
20772;SDS011;10546;50.674;4.616;2024-03-02T09:53:49;7.03;;;1.45;;
20772;SDS011;10546;50.674;4.616;2024-03-02T09:56:15;3.05;;;1.15;;
20772;SDS011;10546;50.674;4.616;2024-03-02T09:58:41;3.83;;;0.88;;
20772;SDS011;10546;50.674;4.616;2024-03-02T10:01:07;2.75;;;0.82;;
20772;SDS011;10546;50.674;4.616;2024-03-02T10:03:35;3.35;;;1.23;;
20772;SDS011;10546;50.674;4.616;2024-03-02T10:08:46;2.50;;;1.10;;
20772;SDS011;10546;50.674;4.616;2024-03-02T10:14:12;2.55;;;0.90;;
20772;SDS011;10546;50.674;4.616;2024-03-02T10:16:42;3.35;;;0.85;;
20772;SDS011;10546;50.674;4.616;2024-03-02T10:19:18;2.97;;;0.80;;
20772;SDS011;10546;50.674;4.616;2024-03-02T10:21:48;2.72;;;0.80;;
20772;SDS011;10546;50.674;4.616;2024-03-02T10:24:15;1.30;;;0.55;;
20772;SDS011;10546;50.674;4.616;2024-03-02T10:26:41;4.70;;;0.80;;
20772;SDS011;10546;50.674;4.616;2024-03-02T10:29:07;5.65;;;0.82;;
20772;SDS011;10546;50.674;4.616;2024-03-02T10:31:35;2.38;;;0.95;;
20772;SDS011;10546;50.674;4.616;2024-03-02T10:34:05;4.50;;;0.80;;
20772;SDS011;10546;50.674;4.616;2024-03-02T10:36:35;4.03;;;1.10;;
20772;SDS011;10546;50.674;4.616;2024-03-02T10:39:05;3.20;;;1.00;;
20772;SDS011;10546;50.674;4.616;2024-03-02T10:41:32;3.78;;;1.00;;
20772;SDS011;10546;50.674;4.616;2024-03-02T10:44:03;4.32;;;1.00;;
20772;SDS011;10546;50.674;4.616;2024-03-02T10:46:34;3.40;;;1.10;;
20772;SDS011;10546;50.674;4.616;2024-03-02T10:49:04;3.70;;;1.00;;
20772;SDS011;10546;50.674;4.616;2024-03-02T10:51:32;2.47;;;0.65;;
20772;SDS011;10546;50.674;4.616;2024-03-02T10:54:01;4.30;;;0.95;;
20772;SDS011;10546;50.674;4.616;2024-03-02T10:56:38;2.08;;;1.08;;
20772;SDS011;10546;50.674;4.616;2024-03-02T11:01:47;7.80;;;1.38;;
20772;SDS011;10546;50.674;4.616;2024-03-02T11:04:15;3.95;;;1.00;;
20772;SDS011;10546;50.674;4.616;2024-03-02T11:06:52;2.55;;;0.80;;
20772;SDS011;10546;50.674;4.616;2024-03-02T11:09:25;7.70;;;1.15;;
20772;SDS011;10546;50.674;4.616;2024-03-02T11:12:35;3.08;;;1.20;;
20772;SDS011;10546;50.674;4.616;2024-03-02T11:14:44;4.80;;;1.52;;
20772;SDS011;10546;50.674;4.616;2024-03-02T11:17:14;2.90;;;0.90;;
20772;SDS011;10546;50.674;4.616;2024-03-02T11:19:41;4.45;;;1.23;;
20772;SDS011;10546;50.674;4.616;2024-03-02T11:22:08;6.00;;;1.23;;
20772;SDS011;10546;50.674;4.616;2024-03-02T11:24:34;3.65;;;1.00;;
20772;SDS011;10546;50.674;4.616;2024-03-02T11:27:00;6.25;;;1.20;;
20772;SDS011;10546;50.674;4.616;2024-03-02T11:32:04;5.10;;;1.70;;
20772;SDS011;10546;50.674;4.616;2024-03-02T11:34:31;4.50;;;1.23;;
20772;SDS011;10546;50.674;4.616;2024-03-02T11:36:58;1.67;;;1.00;;
20772;SDS011;10546;50.674;4.616;2024-03-02T11:39:26;2.97;;;1.08;;
20772;SDS011;10546;50.674;4.616;2024-03-02T11:41:52;3.80;;;0.95;;
20772;SDS011;10546;50.674;4.616;2024-03-02T11:44:18;2.58;;;1.15;;
20772;SDS011;10546;50.674;4.616;2024-03-02T11:47:00;3.53;;;0.95;;
20772;SDS011;10546;50.674;4.616;2024-03-02T11:52:02;4.78;;;1.08;;
20772;SDS011;10546;50.674;4.616;2024-03-02T11:54:29;4.65;;;1.10;;
20772;SDS011;10546;50.674;4.616;2024-03-02T11:56:58;5.30;;;1.10;;
20772;SDS011;10546;50.674;4.616;2024-03-02T11:59:24;6.15;;;1.17;;
20772;SDS011;10546;50.674;4.616;2024-03-02T12:01:51;6.60;;;1.60;;
20772;SDS011;10546;50.674;4.616;2024-03-02T12:04:17;6.50;;;1.40;;
20772;SDS011;10546;50.674;4.616;2024-03-02T12:06:43;3.40;;;1.10;;
20772;SDS011;10546;50.674;4.616;2024-03-02T12:09:09;5.55;;;1.13;;
20772;SDS011;10546;50.674;4.616;2024-03-02T12:11:39;2.20;;;0.90;;
20772;SDS011;10546;50.674;4.616;2024-03-02T12:14:10;8.93;;;1.10;;
20772;SDS011;10546;50.674;4.616;2024-03-02T12:16:37;3.10;;;1.02;;
20772;SDS011;10546;50.674;4.616;2024-03-02T12:19:04;7.55;;;1.38;;
20772;SDS011;10546;50.674;4.616;2024-03-02T12:21:33;4.70;;;1.20;;
20772;SDS011;10546;50.674;4.616;2024-03-02T12:23:58;4.10;;;1.08;;
20772;SDS011;10546;50.674;4.616;2024-03-02T12:26:24;1.88;;;0.80;;
20772;SDS011;10546;50.674;4.616;2024-03-02T12:28:50;2.45;;;0.70;;
20772;SDS011;10546;50.674;4.616;2024-03-02T12:31:16;3.05;;;0.70;;
20772;SDS011;10546;50.674;4.616;2024-03-02T12:33:42;3.72;;;0.80;;
20772;SDS011;10546;50.674;4.616;2024-03-02T12:36:11;1.40;;;0.70;;
20772;SDS011;10546;50.674;4.616;2024-03-02T12:38:42;1.48;;;0.90;;
20772;SDS011;10546;50.674;4.616;2024-03-02T12:41:14;2.45;;;1.08;;
20772;SDS011;10546;50.674;4.616;2024-03-02T12:43:40;3.40;;;0.87;;
20772;SDS011;10546;50.674;4.616;2024-03-02T12:46:06;1.65;;;0.80;;
20772;SDS011;10546;50.674;4.616;2024-03-02T12:48:32;1.58;;;0.88;;
20772;SDS011;10546;50.674;4.616;2024-03-02T12:50:58;1.27;;;0.60;;
20772;SDS011;10546;50.674;4.616;2024-03-02T12:53:24;5.00;;;1.13;;
20772;SDS011;10546;50.674;4.616;2024-03-02T12:55:49;3.97;;;1.20;;
20772;SDS011;10546;50.674;4.616;2024-03-02T12:58:19;9.60;;;1.10;;
20772;SDS011;10546;50.674;4.616;2024-03-02T13:00:48;1.85;;;0.90;;
20772;SDS011;10546;50.674;4.616;2024-03-02T13:03:17;2.22;;;1.05;;
20772;SDS011;10546;50.674;4.616;2024-03-02T13:05:48;3.42;;;0.93;;
20772;SDS011;10546;50.674;4.616;2024-03-02T13:08:14;3.72;;;1.02;;
20772;SDS011;10546;50.674;4.616;2024-03-02T13:10:41;2.65;;;1.13;;
20772;SDS011;10546;50.674;4.616;2024-03-02T13:13:07;1.88;;;1.08;;
20772;SDS011;10546;50.674;4.616;2024-03-02T13:15:33;3.05;;;1.30;;
20772;SDS011;10546;50.674;4.616;2024-03-02T13:17:59;3.50;;;0.95;;
20772;SDS011;10546;50.674;4.616;2024-03-02T13:20:29;1.25;;;0.77;;
20772;SDS011;10546;50.674;4.616;2024-03-02T13:22:56;3.95;;;1.10;;
20772;SDS011;10546;50.674;4.616;2024-03-02T13:25:22;1.20;;;0.90;;
20772;SDS011;10546;50.674;4.616;2024-03-02T13:27:48;2.70;;;1.00;;
20772;SDS011;10546;50.674;4.616;2024-03-02T13:30:13;1.65;;;0.88;;
20772;SDS011;10546;50.674;4.616;2024-03-02T13:32:39;1.63;;;1.00;;
20772;SDS011;10546;50.674;4.616;2024-03-02T13:35:05;2.40;;;1.23;;
20772;SDS011;10546;50.674;4.616;2024-03-02T13:37:30;4.32;;;0.82;;
20772;SDS011;10546;50.674;4.616;2024-03-02T13:39:56;2.15;;;0.73;;
20772;SDS011;10546;50.674;4.616;2024-03-02T13:42:22;2.40;;;0.85;;
20772;SDS011;10546;50.674;4.616;2024-03-02T13:44:47;2.38;;;0.75;;
20772;SDS011;10546;50.674;4.616;2024-03-02T13:47:15;1.63;;;1.00;;
20772;SDS011;10546;50.674;4.616;2024-03-02T13:49:40;0.60;;;0.60;;
20772;SDS011;10546;50.674;4.616;2024-03-02T13:52:10;1.33;;;0.90;;
20772;SDS011;10546;50.674;4.616;2024-03-02T13:54:38;3.60;;;0.80;;
20772;SDS011;10546;50.674;4.616;2024-03-02T13:57:11;2.38;;;0.80;;
20772;SDS011;10546;50.674;4.616;2024-03-02T13:59:37;4.22;;;1.10;;
20772;SDS011;10546;50.674;4.616;2024-03-02T14:02:06;2.45;;;1.00;;
20772;SDS011;10546;50.674;4.616;2024-03-02T14:04:33;2.42;;;0.90;;
20772;SDS011;10546;50.674;4.616;2024-03-02T14:07:00;1.67;;;0.82;;
20772;SDS011;10546;50.674;4.616;2024-03-02T14:09:26;3.63;;;0.80;;
20772;SDS011;10546;50.674;4.616;2024-03-02T14:11:52;1.63;;;0.65;;
20772;SDS011;10546;50.674;4.616;2024-03-02T14:14:19;2.30;;;1.38;;
20772;SDS011;10546;50.674;4.616;2024-03-02T14:16:44;1.77;;;0.68;;
20772;SDS011;10546;50.674;4.616;2024-03-02T14:19:10;3.28;;;0.70;;
20772;SDS011;10546;50.674;4.616;2024-03-02T14:21:37;2.38;;;1.15;;
20772;SDS011;10546;50.674;4.616;2024-03-02T14:24:03;1.92;;;0.93;;
20772;SDS011;10546;50.674;4.616;2024-03-02T14:26:29;1.67;;;0.77;;
20772;SDS011;10546;50.674;4.616;2024-03-02T14:28:55;2.40;;;0.80;;
20772;SDS011;10546;50.674;4.616;2024-03-02T14:31:20;3.20;;;1.10;;
20772;SDS011;10546;50.674;4.616;2024-03-02T14:33:46;2.92;;;1.20;;
20772;SDS011;10546;50.674;4.616;2024-03-02T14:36:12;3.88;;;2.00;;
20772;SDS011;10546;50.674;4.616;2024-03-02T14:38:38;1.92;;;0.93;;
20772;SDS011;10546;50.674;4.616;2024-03-02T14:41:04;4.47;;;1.00;;
20772;SDS011;10546;50.674;4.616;2024-03-02T14:43:30;4.00;;;1.02;;
20772;SDS011;10546;50.674;4.616;2024-03-02T14:45:56;4.25;;;1.13;;
20772;SDS011;10546;50.674;4.616;2024-03-02T14:48:24;3.03;;;0.95;;
20772;SDS011;10546;50.674;4.616;2024-03-02T14:50:50;3.37;;;1.20;;
20772;SDS011;10546;50.674;4.616;2024-03-02T14:53:16;3.60;;;1.40;;
20772;SDS011;10546;50.674;4.616;2024-03-02T14:55:41;1.70;;;1.15;;
20772;SDS011;10546;50.674;4.616;2024-03-02T14:58:07;3.28;;;1.30;;
20772;SDS011;10546;50.674;4.616;2024-03-02T15:00:33;1.65;;;1.10;;
20772;SDS011;10546;50.674;4.616;2024-03-02T15:02:59;2.17;;;1.15;;
20772;SDS011;10546;50.674;4.616;2024-03-02T15:05:24;5.63;;;1.40;;
20772;SDS011;10546;50.674;4.616;2024-03-02T15:07:51;5.30;;;1.27;;
20772;SDS011;10546;50.674;4.616;2024-03-02T15:10:17;5.70;;;1.60;;
20772;SDS011;10546;50.674;4.616;2024-03-02T15:12:43;2.65;;;1.50;;
20772;SDS011;10546;50.674;4.616;2024-03-02T15:15:09;4.10;;;1.30;;
20772;SDS011;10546;50.674;4.616;2024-03-02T15:17:36;2.70;;;1.40;;
20772;SDS011;10546;50.674;4.616;2024-03-02T15:20:02;1.05;;;0.95;;
20772;SDS011;10546;50.674;4.616;2024-03-02T15:22:29;2.03;;;1.30;;
20772;SDS011;10546;50.674;4.616;2024-03-02T15:24:55;5.27;;;0.90;;
20772;SDS011;10546;50.674;4.616;2024-03-02T15:27:20;2.97;;;1.10;;
20772;SDS011;10546;50.674;4.616;2024-03-02T15:29:46;2.63;;;1.30;;
20772;SDS011;10546;50.674;4.616;2024-03-02T15:32:13;3.17;;;1.20;;
20772;SDS011;10546;50.674;4.616;2024-03-02T15:34:38;3.67;;;1.30;;
20772;SDS011;10546;50.674;4.616;2024-03-02T15:37:04;4.35;;;1.35;;
20772;SDS011;10546;50.674;4.616;2024-03-02T15:39:29;3.13;;;1.17;;
20772;SDS011;10546;50.674;4.616;2024-03-02T15:41:55;3.05;;;1.35;;
20772;SDS011;10546;50.674;4.616;2024-03-02T15:44:21;3.38;;;1.27;;
20772;SDS011;10546;50.674;4.616;2024-03-02T15:46:46;4.35;;;1.80;;
20772;SDS011;10546;50.674;4.616;2024-03-02T15:49:12;3.97;;;1.20;;
20772;SDS011;10546;50.674;4.616;2024-03-02T15:51:38;3.05;;;1.13;;
20772;SDS011;10546;50.674;4.616;2024-03-02T15:54:08;3.57;;;1.40;;
20772;SDS011;10546;50.674;4.616;2024-03-02T15:56:34;2.95;;;1.55;;
20772;SDS011;10546;50.674;4.616;2024-03-02T15:59:00;3.33;;;1.30;;
20772;SDS011;10546;50.674;4.616;2024-03-02T16:01:26;6.80;;;2.73;;
20772;SDS011;10546;50.674;4.616;2024-03-02T16:03:51;4.83;;;2.07;;
20772;SDS011;10546;50.674;4.616;2024-03-02T16:06:17;3.13;;;1.30;;
20772;SDS011;10546;50.674;4.616;2024-03-02T16:08:42;4.60;;;1.30;;
20772;SDS011;10546;50.674;4.616;2024-03-02T16:11:09;3.10;;;1.40;;
20772;SDS011;10546;50.674;4.616;2024-03-02T16:13:34;5.93;;;1.40;;
20772;SDS011;10546;50.674;4.616;2024-03-02T16:16:00;3.57;;;1.50;;
20772;SDS011;10546;50.674;4.616;2024-03-02T16:18:28;4.27;;;1.60;;
20772;SDS011;10546;50.674;4.616;2024-03-02T16:20:53;5.20;;;1.60;;
20772;SDS011;10546;50.674;4.616;2024-03-02T16:23:19;4.40;;;1.50;;
20772;SDS011;10546;50.674;4.616;2024-03-02T16:25:45;2.55;;;1.80;;
20772;SDS011;10546;50.674;4.616;2024-03-02T16:28:12;2.30;;;1.50;;
20772;SDS011;10546;50.674;4.616;2024-03-02T16:30:38;2.00;;;1.20;;
20772;SDS011;10546;50.674;4.616;2024-03-02T16:33:03;5.67;;;1.50;;
20772;SDS011;10546;50.674;4.616;2024-03-02T16:35:29;2.97;;;1.57;;
20772;SDS011;10546;50.674;4.616;2024-03-02T16:37:55;2.40;;;1.70;;
20772;SDS011;10546;50.674;4.616;2024-03-02T16:40:20;2.60;;;1.63;;
20772;SDS011;10546;50.674;4.616;2024-03-02T16:42:46;4.05;;;1.80;;
20772;SDS011;10546;50.674;4.616;2024-03-02T16:45:12;3.43;;;2.17;;
20772;SDS011;10546;50.674;4.616;2024-03-02T16:47:38;1.88;;;1.27;;
20772;SDS011;10546;50.674;4.616;2024-03-02T16:50:04;2.50;;;1.80;;
20772;SDS011;10546;50.674;4.616;2024-03-02T16:52:33;3.50;;;2.20;;
20772;SDS011;10546;50.674;4.616;2024-03-02T16:54:58;3.10;;;1.70;;
20772;SDS011;10546;50.674;4.616;2024-03-02T16:57:24;3.83;;;2.03;;
20772;SDS011;10546;50.674;4.616;2024-03-02T16:59:50;2.57;;;1.83;;
20772;SDS011;10546;50.674;4.616;2024-03-02T17:02:16;3.97;;;2.53;;
20772;SDS011;10546;50.674;4.616;2024-03-02T17:04:42;7.00;;;2.05;;
20772;SDS011;10546;50.674;4.616;2024-03-02T17:07:08;3.78;;;2.20;;
20772;SDS011;10546;50.674;4.616;2024-03-02T17:09:36;4.00;;;2.00;;
20772;SDS011;10546;50.674;4.616;2024-03-02T17:12:01;4.07;;;1.90;;
20772;SDS011;10546;50.674;4.616;2024-03-02T17:14:28;2.43;;;1.63;;
20772;SDS011;10546;50.674;4.616;2024-03-02T17:16:54;3.20;;;2.07;;
20772;SDS011;10546;50.674;4.616;2024-03-02T17:19:20;4.77;;;1.90;;
20772;SDS011;10546;50.674;4.616;2024-03-02T17:21:45;3.53;;;2.20;;
20772;SDS011;10546;50.674;4.616;2024-03-02T17:24:11;4.47;;;1.90;;
20772;SDS011;10546;50.674;4.616;2024-03-02T17:26:37;2.90;;;1.90;;
20772;SDS011;10546;50.674;4.616;2024-03-02T17:29:04;4.13;;;2.30;;
20772;SDS011;10546;50.674;4.616;2024-03-02T17:31:30;3.10;;;1.90;;
20772;SDS011;10546;50.674;4.616;2024-03-02T17:33:56;4.73;;;2.20;;
20772;SDS011;10546;50.674;4.616;2024-03-02T17:36:21;4.03;;;2.53;;
20772;SDS011;10546;50.674;4.616;2024-03-02T17:38:47;3.33;;;2.40;;
20772;SDS011;10546;50.674;4.616;2024-03-02T17:41:13;4.87;;;2.57;;
20772;SDS011;10546;50.674;4.616;2024-03-02T17:43:38;3.93;;;2.77;;
20772;SDS011;10546;50.674;4.616;2024-03-02T17:46:04;4.27;;;3.10;;
20772;SDS011;10546;50.674;4.616;2024-03-02T17:48:30;4.00;;;2.80;;
20772;SDS011;10546;50.674;4.616;2024-03-02T17:50:56;5.50;;;2.83;;
20772;SDS011;10546;50.674;4.616;2024-03-02T17:53:22;5.63;;;2.90;;
20772;SDS011;10546;50.674;4.616;2024-03-02T17:55:48;6.30;;;3.47;;
20772;SDS011;10546;50.674;4.616;2024-03-02T17:58:13;6.20;;;3.20;;
20772;SDS011;10546;50.674;4.616;2024-03-02T18:00:39;4.70;;;3.07;;
20772;SDS011;10546;50.674;4.616;2024-03-02T18:03:06;5.63;;;3.47;;
20772;SDS011;10546;50.674;4.616;2024-03-02T18:05:31;10.03;;;3.97;;
20772;SDS011;10546;50.674;4.616;2024-03-02T18:07:57;9.00;;;3.60;;
20772;SDS011;10546;50.674;4.616;2024-03-02T18:10:23;4.73;;;3.13;;
20772;SDS011;10546;50.674;4.616;2024-03-02T18:12:49;5.97;;;3.27;;
20772;SDS011;10546;50.674;4.616;2024-03-02T18:15:15;7.47;;;3.60;;
20772;SDS011;10546;50.674;4.616;2024-03-02T18:17:40;6.83;;;3.73;;
20772;SDS011;10546;50.674;4.616;2024-03-02T18:20:06;6.03;;;3.80;;
20772;SDS011;10546;50.674;4.616;2024-03-02T18:22:34;7.90;;;3.27;;
20772;SDS011;10546;50.674;4.616;2024-03-02T18:25:00;5.10;;;2.90;;
20772;SDS011;10546;50.674;4.616;2024-03-02T18:27:25;7.23;;;3.23;;
20772;SDS011;10546;50.674;4.616;2024-03-02T18:29:51;5.67;;;3.63;;
20772;SDS011;10546;50.674;4.616;2024-03-02T18:32:17;5.97;;;4.00;;
20772;SDS011;10546;50.674;4.616;2024-03-02T18:34:43;6.80;;;3.50;;
20772;SDS011;10546;50.674;4.616;2024-03-02T18:37:08;5.17;;;3.50;;
20772;SDS011;10546;50.674;4.616;2024-03-02T18:39:35;4.47;;;2.80;;
20772;SDS011;10546;50.674;4.616;2024-03-02T18:42:01;4.20;;;2.90;;
20772;SDS011;10546;50.674;4.616;2024-03-02T18:44:26;5.20;;;3.40;;
20772;SDS011;10546;50.674;4.616;2024-03-02T18:46:52;11.07;;;5.03;;
20772;SDS011;10546;50.674;4.616;2024-03-02T18:49:18;5.30;;;3.60;;
20772;SDS011;10546;50.674;4.616;2024-03-02T18:51:44;7.17;;;4.30;;
20772;SDS011;10546;50.674;4.616;2024-03-02T18:54:10;6.83;;;3.50;;
20772;SDS011;10546;50.674;4.616;2024-03-02T18:56:39;11.50;;;4.80;;
20772;SDS011;10546;50.674;4.616;2024-03-02T18:59:08;12.10;;;8.53;;
20772;SDS011;10546;50.674;4.616;2024-03-02T19:01:33;6.83;;;4.33;;
20772;SDS011;10546;50.674;4.616;2024-03-02T19:03:59;5.33;;;3.20;;
20772;SDS011;10546;50.674;4.616;2024-03-02T19:06:24;6.57;;;4.33;;
20772;SDS011;10546;50.674;4.616;2024-03-02T19:08:51;5.47;;;3.27;;
20772;SDS011;10546;50.674;4.616;2024-03-02T19:11:17;7.07;;;4.33;;
20772;SDS011;10546;50.674;4.616;2024-03-02T19:13:46;5.83;;;3.93;;
20772;SDS011;10546;50.674;4.616;2024-03-02T19:16:12;8.37;;;4.27;;
20772;SDS011;10546;50.674;4.616;2024-03-02T19:18:39;5.83;;;3.77;;
20772;SDS011;10546;50.674;4.616;2024-03-02T19:21:05;8.83;;;3.80;;
20772;SDS011;10546;50.674;4.616;2024-03-02T19:23:31;6.00;;;3.40;;
20772;SDS011;10546;50.674;4.616;2024-03-02T19:25:57;5.33;;;3.30;;
20772;SDS011;10546;50.674;4.616;2024-03-02T19:28:23;10.40;;;7.00;;
20772;SDS011;10546;50.674;4.616;2024-03-02T19:30:49;6.03;;;3.33;;
20772;SDS011;10546;50.674;4.616;2024-03-02T19:33:15;4.33;;;2.63;;
20772;SDS011;10546;50.674;4.616;2024-03-02T19:35:42;4.13;;;3.00;;
20772;SDS011;10546;50.674;4.616;2024-03-02T19:38:08;6.23;;;3.73;;
20772;SDS011;10546;50.674;4.616;2024-03-02T19:40:34;5.10;;;2.90;;
20772;SDS011;10546;50.674;4.616;2024-03-02T19:43:00;4.60;;;3.37;;
20772;SDS011;10546;50.674;4.616;2024-03-02T19:45:26;4.13;;;3.20;;
20772;SDS011;10546;50.674;4.616;2024-03-02T19:47:51;6.10;;;3.80;;
20772;SDS011;10546;50.674;4.616;2024-03-02T19:50:17;5.70;;;3.20;;
20772;SDS011;10546;50.674;4.616;2024-03-02T19:52:43;5.00;;;2.87;;
20772;SDS011;10546;50.674;4.616;2024-03-02T19:55:09;6.50;;;2.63;;
20772;SDS011;10546;50.674;4.616;2024-03-02T19:57:35;5.63;;;2.47;;
20772;SDS011;10546;50.674;4.616;2024-03-02T20:00:09;4.20;;;2.93;;
20772;SDS011;10546;50.674;4.616;2024-03-02T20:02:35;9.03;;;3.23;;
20772;SDS011;10546;50.674;4.616;2024-03-02T20:05:01;3.90;;;2.70;;
20772;SDS011;10546;50.674;4.616;2024-03-02T20:07:27;3.40;;;1.90;;
20772;SDS011;10546;50.674;4.616;2024-03-02T20:09:52;4.73;;;3.20;;
20772;SDS011;10546;50.674;4.616;2024-03-02T20:12:19;3.27;;;1.97;;
20772;SDS011;10546;50.674;4.616;2024-03-02T20:14:46;5.43;;;2.50;;
20772;SDS011;10546;50.674;4.616;2024-03-02T20:17:12;3.37;;;1.97;;
20772;SDS011;10546;50.674;4.616;2024-03-02T20:19:39;4.67;;;2.03;;
20772;SDS011;10546;50.674;4.616;2024-03-02T20:22:05;5.20;;;2.37;;
20772;SDS011;10546;50.674;4.616;2024-03-02T20:24:30;4.57;;;2.40;;
20772;SDS011;10546;50.674;4.616;2024-03-02T20:26:56;2.43;;;1.93;;
20772;SDS011;10546;50.674;4.616;2024-03-02T20:29:21;2.10;;;1.53;;
20772;SDS011;10546;50.674;4.616;2024-03-02T20:31:47;2.90;;;2.07;;
20772;SDS011;10546;50.674;4.616;2024-03-02T20:34:13;4.67;;;2.30;;
20772;SDS011;10546;50.674;4.616;2024-03-02T20:36:42;4.60;;;3.27;;
20772;SDS011;10546;50.674;4.616;2024-03-02T20:39:08;3.93;;;2.40;;
20772;SDS011;10546;50.674;4.616;2024-03-02T20:41:34;5.33;;;3.80;;
20772;SDS011;10546;50.674;4.616;2024-03-02T20:44:01;3.37;;;1.50;;
20772;SDS011;10546;50.674;4.616;2024-03-02T20:46:28;3.80;;;2.30;;
20772;SDS011;10546;50.674;4.616;2024-03-02T20:48:54;2.97;;;2.00;;
20772;SDS011;10546;50.674;4.616;2024-03-02T20:51:22;2.00;;;1.43;;
20772;SDS011;10546;50.674;4.616;2024-03-02T20:53:53;3.80;;;1.90;;
20772;SDS011;10546;50.674;4.616;2024-03-02T20:56:25;4.00;;;2.30;;
20772;SDS011;10546;50.674;4.616;2024-03-02T20:58:51;3.50;;;1.80;;
20772;SDS011;10546;50.674;4.616;2024-03-02T21:01:17;3.23;;;1.83;;
20772;SDS011;10546;50.674;4.616;2024-03-02T21:03:43;3.40;;;1.67;;
20772;SDS011;10546;50.674;4.616;2024-03-02T21:06:09;3.10;;;2.00;;
20772;SDS011;10546;50.674;4.616;2024-03-02T21:08:35;4.17;;;2.73;;
20772;SDS011;10546;50.674;4.616;2024-03-02T21:11:01;6.10;;;2.80;;
20772;SDS011;10546;50.674;4.616;2024-03-02T21:13:30;3.03;;;1.93;;
20772;SDS011;10546;50.674;4.616;2024-03-02T21:15:56;3.17;;;1.97;;
20772;SDS011;10546;50.674;4.616;2024-03-02T21:18:22;1.73;;;1.43;;
20772;SDS011;10546;50.674;4.616;2024-03-02T21:20:48;3.17;;;1.80;;
20772;SDS011;10546;50.674;4.616;2024-03-02T21:23:13;2.73;;;2.00;;
20772;SDS011;10546;50.674;4.616;2024-03-02T21:25:41;2.97;;;1.80;;
20772;SDS011;10546;50.674;4.616;2024-03-02T21:28:07;2.73;;;1.93;;
20772;SDS011;10546;50.674;4.616;2024-03-02T21:30:33;3.57;;;1.93;;
20772;SDS011;10546;50.674;4.616;2024-03-02T21:33:00;2.57;;;1.80;;
20772;SDS011;10546;50.674;4.616;2024-03-02T21:35:26;7.50;;;1.50;;
20772;SDS011;10546;50.674;4.616;2024-03-02T21:37:56;3.10;;;1.30;;
20772;SDS011;10546;50.674;4.616;2024-03-02T21:40:27;2.33;;;1.70;;
20772;SDS011;10546;50.674;4.616;2024-03-02T21:42:53;2.97;;;1.97;;
20772;SDS011;10546;50.674;4.616;2024-03-02T21:45:21;2.67;;;1.60;;
20772;SDS011;10546;50.674;4.616;2024-03-02T21:47:47;3.27;;;1.97;;
20772;SDS011;10546;50.674;4.616;2024-03-02T21:50:12;4.87;;;1.63;;
20772;SDS011;10546;50.674;4.616;2024-03-02T21:52:40;2.17;;;1.40;;
20772;SDS011;10546;50.674;4.616;2024-03-02T21:55:06;2.80;;;2.00;;
20772;SDS011;10546;50.674;4.616;2024-03-02T21:57:36;3.90;;;2.07;;
20772;SDS011;10546;50.674;4.616;2024-03-02T22:00:02;1.93;;;1.37;;
20772;SDS011;10546;50.674;4.616;2024-03-02T22:02:29;2.23;;;1.40;;
20772;SDS011;10546;50.674;4.616;2024-03-02T22:04:55;2.73;;;1.67;;
20772;SDS011;10546;50.674;4.616;2024-03-02T22:07:26;3.07;;;1.93;;
20772;SDS011;10546;50.674;4.616;2024-03-02T22:09:52;4.97;;;1.60;;
20772;SDS011;10546;50.674;4.616;2024-03-02T22:12:17;1.97;;;1.53;;
20772;SDS011;10546;50.674;4.616;2024-03-02T22:14:43;5.17;;;1.80;;
20772;SDS011;10546;50.674;4.616;2024-03-02T22:17:09;3.67;;;2.07;;
20772;SDS011;10546;50.674;4.616;2024-03-02T22:19:37;3.67;;;2.23;;
20772;SDS011;10546;50.674;4.616;2024-03-02T22:22:03;6.00;;;2.90;;
20772;SDS011;10546;50.674;4.616;2024-03-02T22:24:29;3.60;;;2.00;;
20772;SDS011;10546;50.674;4.616;2024-03-02T22:26:55;4.40;;;2.40;;
20772;SDS011;10546;50.674;4.616;2024-03-02T22:29:21;5.10;;;2.60;;
20772;SDS011;10546;50.674;4.616;2024-03-02T22:31:47;3.53;;;2.30;;
20772;SDS011;10546;50.674;4.616;2024-03-02T22:34:13;4.70;;;2.33;;
20772;SDS011;10546;50.674;4.616;2024-03-02T22:36:38;4.20;;;2.30;;
20772;SDS011;10546;50.674;4.616;2024-03-02T22:39:05;4.97;;;2.27;;
20772;SDS011;10546;50.674;4.616;2024-03-02T22:41:33;2.60;;;1.97;;
20772;SDS011;10546;50.674;4.616;2024-03-02T22:43:58;2.63;;;1.73;;
20772;SDS011;10546;50.674;4.616;2024-03-02T22:46:25;2.33;;;1.60;;
20772;SDS011;10546;50.674;4.616;2024-03-02T22:48:51;2.83;;;1.50;;
20772;SDS011;10546;50.674;4.616;2024-03-02T22:51:23;4.13;;;1.80;;
20772;SDS011;10546;50.674;4.616;2024-03-02T22:53:50;1.33;;;1.13;;
20772;SDS011;10546;50.674;4.616;2024-03-02T22:56:16;3.23;;;1.50;;
20772;SDS011;10546;50.674;4.616;2024-03-02T22:58:42;2.73;;;1.37;;